Time;durP1;ratioP1;P1;durP2;ratioP2;P2;SDS_P1;SDS_P2;PMS_P1;PMS_P2;Temp;Humidity;BMP_temperature;BMP_pressure;BME280_temperature;BME280_humidity;BME280_pressure;Samples;Min_cycle;Max_cycle;Signal;HPM_P1;HPM_P2
2023/08/28 00:01:16;;;;;;;7.60;6.77;;;12.50;91.70;;;;;;5095734;28;20220;-90
2023/08/28 00:03:43;;;;;;;7.83;7.03;;;12.40;91.90;;;;;;5094916;28;20652;-90
2023/08/28 00:06:08;;;;;;;8.50;6.50;;;12.40;91.90;;;;;;5094538;28;20213;-90
2023/08/28 00:08:34;;;;;;;9.50;6.67;;;12.50;92.00;;;;;;5095837;28;20645;-90
2023/08/28 00:11:00;;;;;;;7.23;6.63;;;12.50;92.00;;;;;;5095835;28;20167;-90
2023/08/28 00:13:25;;;;;;;9.03;7.10;;;12.50;92.00;;;;;;5095485;28;20170;-91
2023/08/28 00:15:52;;;;;;;7.97;7.17;;;12.50;92.10;;;;;;5095460;28;20225;-91
2023/08/28 00:18:17;;;;;;;8.60;7.77;;;12.50;92.10;;;;;;5095411;28;20171;-90
2023/08/28 00:20:43;;;;;;;14.80;7.90;;;12.50;92.30;;;;;;5095375;28;20278;-91
2023/08/28 00:23:09;;;;;;;8.73;7.40;;;12.50;92.20;;;;;;5094060;28;20216;-91
2023/08/28 00:25:34;;;;;;;9.30;7.30;;;12.50;92.30;;;;;;5095590;28;20202;-90
2023/08/28 00:28:00;;;;;;;7.60;7.00;;;12.50;92.30;;;;;;5093955;28;20209;-89
2023/08/28 00:30:26;;;;;;;7.17;6.47;;;12.50;92.30;;;;;;5094364;28;20182;-91
2023/08/28 00:32:51;;;;;;;8.70;6.90;;;12.60;92.20;;;;;;5095064;28;20170;-92
2023/08/28 00:35:17;;;;;;;9.90;7.13;;;12.60;92.30;;;;;;5094151;28;20247;-92
2023/08/28 00:37:42;;;;;;;8.25;6.50;;;12.70;92.30;;;;;;5093958;28;20216;-92
2023/08/28 00:40:13;;;;;;;7.80;7.00;;;12.70;92.30;;;;;;5095335;28;20175;-92
2023/08/28 00:42:38;;;;;;;9.07;6.90;;;12.80;92.30;;;;;;5094798;28;20171;-91
2023/08/28 00:45:04;;;;;;;8.33;6.63;;;12.80;92.20;;;;;;5095660;28;20247;-91
2023/08/28 00:47:30;;;;;;;7.53;6.83;;;12.80;92.10;;;;;;5093717;28;20673;-89
2023/08/28 00:49:55;;;;;;;7.50;6.80;;;12.80;92.00;;;;;;5093464;28;20181;-89
2023/08/28 00:52:21;;;;;;;6.73;6.13;;;12.70;92.10;;;;;;5093531;28;20182;-90
2023/08/28 00:54:47;;;;;;;7.30;6.70;;;12.70;92.20;;;;;;5094681;28;20186;-89
2023/08/28 00:57:15;;;;;;;8.37;6.57;;;12.70;92.30;;;;;;5094591;28;20558;-89
2023/08/28 00:59:42;;;;;;;7.03;6.33;;;12.80;92.30;;;;;;5093348;28;20174;-89
2023/08/28 01:02:08;;;;;;;10.60;6.40;;;12.80;92.20;;;;;;5094613;28;20187;-90
2023/08/28 01:04:33;;;;;;;10.23;7.63;;;12.80;92.20;;;;;;5094497;28;20261;-90
2023/08/28 01:07:20;;;;;;;9.50;6.03;;;12.80;92.30;;;;;;5093181;28;20749;-89
2023/08/28 01:10:12;;;;;;;8.03;5.87;;;12.80;92.30;;;;;;5093199;28;20662;-89
2023/08/28 01:12:59;;;;;;;8.80;5.80;;;12.80;92.40;;;;;;5094223;28;20579;-90
2023/08/28 01:15:26;;;;;;;10.57;5.90;;;12.80;92.40;;;;;;5093484;28;20195;-90
2023/08/28 01:17:58;;;;;;;7.43;5.83;;;12.80;92.40;;;;;;5092782;28;20193;-90
2023/08/28 01:20:26;;;;;;;6.50;5.47;;;12.80;92.30;;;;;;5093592;28;20174;-89
2023/08/28 01:22:59;;;;;;;7.33;5.70;;;12.80;92.40;;;;;;5093415;28;20664;-90
2023/08/28 01:25:25;;;;;;;6.00;5.40;;;12.80;92.40;;;;;;5093911;28;20198;-89
2023/08/28 01:27:52;;;;;;;7.30;5.73;;;12.80;92.30;;;;;;5092690;28;20586;-89
2023/08/28 01:30:17;;;;;;;10.40;6.37;;;12.80;92.30;;;;;;5092695;28;20202;-89
2023/08/28 01:32:45;;;;;;;7.13;6.33;;;12.80;92.40;;;;;;5093095;28;20634;-90
2023/08/28 01:35:26;;;;;;;9.37;6.33;;;12.80;92.50;;;;;;5092543;28;20199;-89
2023/08/28 01:38:19;;;;;;;6.77;6.07;;;12.80;92.50;;;;;;5094143;28;20549;-89
2023/08/28 01:40:47;;;;;;;7.00;6.40;;;12.80;92.50;;;;;;5093350;28;20323;-89
2023/08/28 01:43:17;;;;;;;6.93;6.20;;;12.90;92.60;;;;;;5093759;28;20177;-89
2023/08/28 01:45:42;;;;;;;7.90;6.23;;;12.90;92.60;;;;;;5092557;28;20546;-90
2023/08/28 01:48:08;;;;;;;6.90;6.20;;;12.90;92.60;;;;;;5093569;28;20212;-90
2023/08/28 01:50:34;;;;;;;6.63;6.13;;;13.00;92.60;;;;;;5092505;28;20177;-89
2023/08/28 01:53:00;;;;;;;10.43;8.00;;;13.00;92.70;;;;;;5092522;28;20167;-90
2023/08/28 01:55:56;;;;;;;12.93;6.70;;;13.00;92.60;;;;;;5092504;28;20210;-89
2023/08/28 01:58:21;;;;;;;7.80;7.10;;;13.00;92.50;;;;;;5092580;28;20191;-89
2023/08/28 02:00:47;;;;;;;10.97;6.70;;;13.00;92.50;;;;;;5093619;28;20185;-89
2023/08/28 02:03:15;;;;;;;8.17;7.23;;;13.00;92.50;;;;;;5093591;28;20225;-89
2023/08/28 02:05:41;;;;;;;10.47;6.97;;;13.00;92.60;;;;;;5092294;28;20230;-90
2023/08/28 02:08:06;;;;;;;11.80;7.77;;;13.00;92.60;;;;;;5093362;28;20629;-90
2023/08/28 02:10:32;;;;;;;16.13;7.00;;;13.00;92.60;;;;;;5092239;28;20166;-89
2023/08/28 02:12:57;;;;;;;7.23;6.50;;;13.10;92.70;;;;;;5093447;28;20239;-89
2023/08/28 02:15:23;;;;;;;12.03;7.20;;;13.10;92.70;;;;;;5093518;28;20227;-90
2023/08/28 02:17:49;;;;;;;14.17;7.40;;;13.20;92.70;;;;;;5092142;28;20212;-90
2023/08/28 02:20:14;;;;;;;10.97;7.23;;;13.20;92.70;;;;;;5093219;28;20217;-89
2023/08/28 02:22:39;;;;;;;7.97;7.17;;;13.20;92.70;;;;;;5092266;28;20713;-89
2023/08/28 02:25:05;;;;;;;10.83;7.20;;;13.30;92.70;;;;;;5093482;28;20195;-89
2023/08/28 02:27:31;;;;;;;10.63;8.03;;;13.30;92.70;;;;;;5094640;28;20202;-89
2023/08/28 02:29:57;;;;;;;12.57;7.27;;;13.30;92.70;;;;;;5097476;28;20202;-89
2023/08/28 02:32:23;;;;;;;10.43;6.87;;;13.20;92.70;;;;;;5096247;28;20175;-89
2023/08/28 02:34:49;;;;;;;13.10;7.57;;;13.30;92.80;;;;;;5096087;28;20197;-90
2023/08/28 02:37:14;;;;;;;9.47;7.93;;;13.30;92.80;;;;;;5096141;28;20650;-89
2023/08/28 02:39:40;;;;;;;11.67;8.83;;;13.20;92.80;;;;;;5095972;28;20258;-90
2023/08/28 02:42:05;;;;;;;10.63;8.07;;;13.30;92.80;;;;;;5095936;28;20170;-90
2023/08/28 02:44:31;;;;;;;9.13;7.93;;;13.20;92.80;;;;;;5095800;28;20183;-90
2023/08/28 02:46:57;;;;;;;11.13;8.17;;;13.30;92.80;;;;;;5097061;28;20209;-90
2023/08/28 02:49:22;;;;;;;13.83;8.30;;;13.20;92.90;;;;;;5095794;28;20581;-90
2023/08/28 02:51:48;;;;;;;8.30;7.50;;;13.30;92.90;;;;;;5095803;28;20179;-89
2023/08/28 02:54:13;;;;;;;15.17;7.73;;;13.30;92.90;;;;;;5095747;28;20171;-89
2023/08/28 02:56:40;;;;;;;10.10;6.40;;;13.30;92.90;;;;;;5095492;28;20210;-90
2023/08/28 02:59:06;;;;;;;7.77;6.63;;;13.30;92.80;;;;;;5095653;28;20175;-90
2023/08/28 03:01:34;;;;;;;7.77;6.67;;;13.20;92.80;;;;;;5095544;28;20179;-90
2023/08/28 03:04:06;;;;;;;7.93;6.67;;;13.30;92.80;;;;;;5095484;28;20186;-90
2023/08/28 03:06:36;;;;;;;6.37;5.83;;;13.20;92.90;;;;;;5096643;28;20202;-89
2023/08/28 03:09:02;;;;;;;7.00;6.40;;;13.30;93.00;;;;;;5095729;28;20208;-90
2023/08/28 03:11:28;;;;;;;10.17;6.33;;;13.30;93.00;;;;;;5095571;28;20186;-90
2023/08/28 03:13:54;;;;;;;11.43;6.47;;;13.30;93.00;;;;;;5095540;28;20179;-90
2023/08/28 03:16:19;;;;;;;7.30;6.07;;;13.30;93.00;;;;;;5096617;28;20199;-90
2023/08/28 03:18:45;;;;;;;14.73;6.60;;;13.20;93.10;;;;;;5095801;28;20183;-90
2023/08/28 03:21:11;;;;;;;9.87;5.87;;;13.20;93.10;;;;;;5095964;28;20638;-89
2023/08/28 03:23:36;;;;;;;9.13;5.90;;;13.20;93.20;;;;;;5095232;28;20508;-89
2023/08/28 03:26:02;;;;;;;8.70;5.93;;;13.30;93.20;;;;;;5095012;28;20222;-90
2023/08/28 03:28:28;;;;;;;6.37;5.77;;;13.30;93.20;;;;;;5095516;28;20646;-90
2023/08/28 03:30:58;;;;;;;10.47;5.83;;;13.20;93.30;;;;;;5095195;28;20270;-90
2023/08/28 03:33:23;;;;;;;11.30;6.10;;;13.20;93.30;;;;;;5095117;28;20553;-89
2023/08/28 03:35:49;;;;;;;8.47;6.67;;;13.20;93.30;;;;;;5095021;28;20247;-89
2023/08/28 03:38:14;;;;;;;7.20;6.40;;;13.20;93.30;;;;;;5094357;28;20166;-89
2023/08/28 03:40:40;;;;;;;8.03;6.17;;;13.20;93.20;;;;;;5095481;28;20182;-90
2023/08/28 03:43:05;;;;;;;10.97;6.20;;;13.20;93.30;;;;;;5094854;28;20174;-90
2023/08/28 03:45:31;;;;;;;6.95;5.90;;;13.20;93.40;;;;;;5095947;28;20567;-90
2023/08/28 03:47:57;;;;;;;7.60;6.37;;;13.20;93.50;;;;;;5094690;28;20057;-90
2023/08/28 03:50:22;;;;;;;6.30;5.80;;;13.20;93.50;;;;;;5094694;28;20600;-90
2023/08/28 03:52:48;;;;;;;7.53;5.80;;;13.20;93.40;;;;;;5094646;28;20687;-90
2023/08/28 03:55:13;;;;;;;7.30;5.90;;;13.20;93.40;;;;;;5094638;28;20202;-90
2023/08/28 03:57:39;;;;;;;7.90;5.97;;;13.20;93.40;;;;;;5094475;28;20166;-90
2023/08/28 04:00:10;;;;;;;6.97;5.90;;;13.00;93.50;;;;;;5095617;28;20263;-90
2023/08/28 04:02:36;;;;;;;8.73;6.50;;;13.00;93.50;;;;;;5094508;28;20171;-90
2023/08/28 04:05:04;;;;;;;7.60;6.30;;;13.10;93.60;;;;;;5095526;28;20193;-90
2023/08/28 04:07:31;;;;;;;10.60;5.83;;;13.10;93.60;;;;;;5094267;28;20198;-90
2023/08/28 04:09:57;;;;;;;7.25;5.90;;;13.10;93.60;;;;;;5094409;28;20235;-90
2023/08/28 04:12:23;;;;;;;6.73;6.00;;;13.10;93.60;;;;;;5095489;28;20174;-90
2023/08/28 04:14:48;;;;;;;8.80;5.80;;;13.00;93.70;;;;;;5094037;28;20682;-90
2023/08/28 04:17:14;;;;;;;7.60;6.03;;;13.00;93.70;;;;;;5094115;28;20183;-89
2023/08/28 04:19:40;;;;;;;9.70;6.13;;;12.90;93.70;;;;;;5095425;28;20212;-89
2023/08/28 04:22:06;;;;;;;6.73;6.10;;;13.00;93.80;;;;;;5094088;28;20173;-90
2023/08/28 04:24:31;;;;;;;6.73;5.57;;;13.00;93.90;;;;;;5094041;28;20175;-89
2023/08/28 04:26:57;;;;;;;7.10;5.83;;;13.00;93.80;;;;;;5094264;28;20206;-90
2023/08/28 04:29:22;;;;;;;6.43;5.80;;;13.00;93.80;;;;;;5095140;28;20258;-90
2023/08/28 04:31:48;;;;;;;9.70;6.20;;;12.90;93.70;;;;;;5093878;28;20182;-90
2023/08/28 04:34:14;;;;;;;7.47;6.77;;;12.90;93.80;;;;;;5093853;28;20212;-90
2023/08/28 04:36:39;;;;;;;9.57;6.70;;;12.90;93.80;;;;;;5093885;28;20259;-90
2023/08/28 04:39:05;;;;;;;8.43;6.57;;;12.90;93.80;;;;;;5093721;28;20701;-89
2023/08/28 04:41:31;;;;;;;7.63;6.33;;;12.90;93.80;;;;;;5093605;28;20189;-90
2023/08/28 04:43:56;;;;;;;9.93;7.10;;;12.90;93.80;;;;;;5093651;28;20171;-89
2023/08/28 04:46:22;;;;;;;10.77;7.13;;;12.90;93.80;;;;;;5093428;28;20194;-89
2023/08/28 04:48:48;;;;;;;8.07;7.10;;;12.90;93.90;;;;;;5093419;28;20174;-90
2023/08/28 04:51:13;;;;;;;8.07;7.30;;;12.90;93.90;;;;;;5093276;28;20608;-90
2023/08/28 04:53:39;;;;;;;9.07;7.77;;;13.00;93.90;;;;;;5093454;28;20210;-89
2023/08/28 04:56:05;;;;;;;8.60;7.57;;;13.00;93.90;;;;;;5093260;28;20203;-90
2023/08/28 04:58:30;;;;;;;10.77;8.60;;;13.00;94.00;;;;;;5094681;28;20609;-90
2023/08/28 05:00:56;;;;;;;12.60;8.50;;;13.00;94.00;;;;;;5093380;28;20178;-90
2023/08/28 05:03:22;;;;;;;13.67;8.30;;;13.00;94.00;;;;;;5094545;28;20719;-90
2023/08/28 05:05:48;;;;;;;14.27;7.83;;;13.10;94.10;;;;;;5094286;28;20550;-90
2023/08/28 05:08:15;;;;;;;12.37;8.77;;;13.10;94.00;;;;;;5093181;28;20269;-89
2023/08/28 05:10:40;;;;;;;9.83;8.87;;;13.10;94.00;;;;;;5094429;28;20167;-89
2023/08/28 05:13:06;;;;;;;13.97;9.23;;;13.10;94.00;;;;;;5093117;28;20171;-90
2023/08/28 05:15:31;;;;;;;9.75;8.75;;;13.10;94.00;;;;;;5092835;28;20196;-90
2023/08/28 05:17:57;;;;;;;10.77;9.67;;;13.10;93.90;;;;;;5094214;28;20179;-90
2023/08/28 05:20:22;;;;;;;9.50;8.33;;;13.10;93.90;;;;;;5094319;28;20170;-90
2023/08/28 05:22:48;;;;;;;13.10;9.70;;;13.10;93.80;;;;;;5092995;28;20188;-90
2023/08/28 05:25:13;;;;;;;17.83;9.33;;;13.20;93.90;;;;;;5093037;28;20222;-90
2023/08/28 05:27:39;;;;;;;8.80;7.90;;;13.20;93.90;;;;;;5092937;28;20285;-90
2023/08/28 05:30:06;;;;;;;10.63;9.53;;;13.20;93.80;;;;;;5092793;28;20167;-90
2023/08/28 05:32:32;;;;;;;9.13;8.33;;;13.20;93.80;;;;;;5092754;28;20731;-90
2023/08/28 05:34:58;;;;;;;9.10;8.30;;;13.20;93.70;;;;;;5093937;28;20244;-88
2023/08/28 05:37:25;;;;;;;11.07;8.37;;;13.30;93.70;;;;;;5092785;28;20206;-90
2023/08/28 05:39:51;;;;;;;9.23;7.93;;;13.30;93.70;;;;;;5092660;28;20292;-90
2023/08/28 05:42:17;;;;;;;11.57;7.83;;;13.30;93.70;;;;;;5092707;28;20244;-90
2023/08/28 05:44:42;;;;;;;9.00;8.20;;;13.30;93.60;;;;;;5092464;28;20293;-90
2023/08/28 05:47:08;;;;;;;8.43;7.70;;;13.40;93.60;;;;;;5093954;28;20198;-90
2023/08/28 05:49:34;;;;;;;8.53;7.70;;;13.40;93.40;;;;;;5093796;28;20162;-90
2023/08/28 05:52:00;;;;;;;8.60;7.73;;;13.40;93.30;;;;;;5092428;28;20180;-90
2023/08/28 05:54:25;;;;;;;8.13;7.33;;;13.50;93.30;;;;;;5092387;28;20174;-90
2023/08/28 05:56:51;;;;;;;8.73;7.73;;;13.50;93.30;;;;;;5092657;28;20200;-90
2023/08/28 05:59:16;;;;;;;14.10;7.60;;;13.50;93.10;;;;;;5093578;28;20181;-90
2023/08/28 06:01:42;;;;;;;13.23;10.00;;;13.60;93.10;;;;;;5091794;28;20178;-90
2023/08/28 06:04:08;;;;;;;11.47;10.40;;;13.70;93.20;;;;;;5093875;28;20178;-90
2023/08/28 06:06:33;;;;;;;12.47;11.00;;;13.70;93.10;;;;;;5093399;28;20242;-89
2023/08/28 06:09:06;;;;;;;8.70;7.77;;;13.80;93.10;;;;;;5092319;28;20170;-90
2023/08/28 06:11:32;;;;;;;10.50;7.77;;;13.80;93.00;;;;;;5092282;28;20232;-90
2023/08/28 06:13:59;;;;;;;10.77;7.57;;;13.90;93.00;;;;;;5092179;28;20174;-90
2023/08/28 06:16:25;;;;;;;12.63;11.40;;;13.90;92.90;;;;;;5092183;28;20194;-90
2023/08/28 06:18:50;;;;;;;12.23;11.13;;;14.00;92.90;;;;;;5092026;28;20598;-90
2023/08/28 06:21:16;;;;;;;8.20;7.50;;;14.00;92.80;;;;;;5093272;28;20185;-90
2023/08/28 06:23:41;;;;;;;8.53;7.40;;;14.00;92.80;;;;;;5093167;28;20202;-90
2023/08/28 06:26:07;;;;;;;12.57;10.50;;;14.10;92.90;;;;;;5092216;28;20222;-90
2023/08/28 06:28:33;;;;;;;11.47;10.47;;;14.30;92.90;;;;;;5093550;28;20167;-90
2023/08/28 06:30:59;;;;;;;12.50;11.40;;;14.30;92.70;;;;;;5092125;28;20170;-90
2023/08/28 06:33:25;;;;;;;8.00;6.83;;;14.30;92.60;;;;;;5091994;28;20610;-90
2023/08/28 06:35:51;;;;;;;7.67;6.97;;;14.40;92.50;;;;;;5091997;28;20267;-90
2023/08/28 06:38:17;;;;;;;14.57;7.33;;;14.50;92.50;;;;;;5091926;28;20184;-90
2023/08/28 06:40:50;;;;;;;8.10;7.30;;;14.40;92.20;;;;;;5093392;28;20648;-90
2023/08/28 06:43:16;;;;;;;8.43;7.50;;;14.50;92.20;;;;;;5092137;28;20177;-90
2023/08/28 06:45:42;;;;;;;7.60;7.10;;;14.50;92.00;;;;;;5093020;28;20256;-90
2023/08/28 06:48:08;;;;;;;9.77;6.97;;;14.50;91.80;;;;;;5092963;28;20260;-90
2023/08/28 06:50:34;;;;;;;7.77;7.03;;;14.60;91.80;;;;;;5092599;28;20206;-90
2023/08/28 06:53:00;;;;;;;8.90;6.60;;;14.70;91.70;;;;;;5093094;28;20171;-90
2023/08/28 06:55:26;;;;;;;9.00;7.00;;;14.80;91.40;;;;;;5091539;28;20203;-90
2023/08/28 06:57:51;;;;;;;8.90;6.70;;;14.80;91.40;;;;;;5091789;28;20683;-90
2023/08/28 07:00:17;;;;;;;8.55;6.25;;;14.90;91.30;;;;;;5091855;28;20175;-90
2023/08/28 07:02:43;;;;;;;7.07;6.47;;;15.00;91.30;;;;;;5091989;28;20535;-90
2023/08/28 07:05:08;;;;;;;8.63;6.40;;;15.10;91.00;;;;;;5091575;28;20607;-90
2023/08/28 07:07:34;;;;;;;7.18;6.30;;;15.10;90.80;;;;;;5092333;28;20289;-90
2023/08/28 07:09:59;;;;;;;10.20;6.57;;;15.20;90.60;;;;;;5092301;28;20653;-90
2023/08/28 07:12:25;;;;;;;8.73;6.50;;;15.30;90.10;;;;;;5091669;28;20233;-90
2023/08/28 07:15:12;;;;;;;7.95;6.30;;;15.30;89.90;;;;;;5095136;28;20572;-90
2023/08/28 07:17:37;;;;;;;6.68;6.03;;;15.50;90.10;;;;;;5095434;28;20561;-90
2023/08/28 07:20:04;;;;;;;7.47;6.68;;;15.50;89.70;;;;;;5096600;28;20175;-90
2023/08/28 07:22:30;;;;;;;7.32;6.63;;;15.50;90.00;;;;;;5095191;28;20183;-90
2023/08/28 07:24:56;;;;;;;8.50;6.40;;;15.60;89.90;;;;;;5096077;28;20215;-90
2023/08/28 07:27:22;;;;;;;8.75;6.40;;;15.70;89.80;;;;;;5095107;28;20256;-90
2023/08/28 07:29:47;;;;;;;6.88;6.28;;;15.80;89.50;;;;;;5095125;28;20202;-90
2023/08/28 07:32:13;;;;;;;9.73;7.57;;;15.90;89.20;;;;;;5096997;28;20174;-91
2023/08/28 07:34:39;;;;;;;8.30;7.30;;;15.90;88.90;;;;;;5095838;28;20602;-89
2023/08/28 07:37:05;;;;;;;11.05;7.13;;;15.90;88.60;;;;;;5096259;28;20171;-90
2023/08/28 07:39:30;;;;;;;8.75;7.82;;;16.20;89.50;;;;;;5096178;28;20254;-89
2023/08/28 07:41:59;;;;;;;11.30;10.25;;;16.20;88.70;;;;;;5094902;28;20252;-89
2023/08/28 07:44:24;;;;;;;8.43;7.63;;;16.20;88.40;;;;;;5094834;28;20175;-89
2023/08/28 07:46:50;;;;;;;8.50;7.88;;;16.20;88.40;;;;;;5095995;28;20191;-89
2023/08/28 07:49:16;;;;;;;10.75;8.80;;;16.30;88.50;;;;;;5096559;28;20257;-89
2023/08/28 07:51:41;;;;;;;8.80;7.93;;;16.40;88.30;;;;;;5096336;28;20170;-89
2023/08/28 07:54:07;;;;;;;9.55;8.73;;;16.60;88.00;;;;;;5094829;28;20178;-89
2023/08/28 07:56:33;;;;;;;11.15;8.65;;;16.50;88.00;;;;;;5096240;28;20215;-89
2023/08/28 07:58:58;;;;;;;12.45;8.63;;;16.50;87.20;;;;;;5094623;28;20174;-90
2023/08/28 08:01:24;;;;;;;8.55;8.00;;;16.50;88.10;;;;;;5096059;28;20657;-90
2023/08/28 08:03:50;;;;;;;9.60;8.70;;;16.50;88.00;;;;;;5097708;28;20157;-90
2023/08/28 08:06:16;;;;;;;9.43;8.63;;;16.50;87.50;;;;;;5094285;28;20205;-90
2023/08/28 08:08:45;;;;;;;9.68;8.90;;;16.60;87.40;;;;;;5094402;28;20178;-90
2023/08/28 08:11:11;;;;;;;12.02;9.25;;;16.80;87.00;;;;;;5095642;28;20254;-89
2023/08/28 08:13:37;;;;;;;9.27;8.52;;;16.80;86.90;;;;;;5094442;28;20271;-90
2023/08/28 08:16:04;;;;;;;11.23;9.10;;;16.70;86.70;;;;;;5095016;28;20669;-88
2023/08/28 08:18:30;;;;;;;11.35;8.68;;;16.90;87.00;;;;;;5094251;28;20206;-89
2023/08/28 08:20:56;;;;;;;15.52;10.07;;;17.20;86.80;;;;;;5094192;28;20197;-89
2023/08/28 08:23:22;;;;;;;9.52;8.77;;;17.20;85.60;;;;;;5094173;28;20174;-89
2023/08/28 08:25:47;;;;;;;10.32;9.40;;;17.50;86.00;;;;;;5094302;28;20723;-89
2023/08/28 08:28:15;;;;;;;16.17;9.70;;;17.50;85.20;;;;;;5094463;28;20202;-89
2023/08/28 08:30:41;;;;;;;12.73;10.70;;;17.60;85.10;;;;;;5095102;28;20171;-90
2023/08/28 08:33:06;;;;;;;11.13;10.23;;;17.50;83.80;;;;;;5093880;28;20711;-90
2023/08/28 08:35:33;;;;;;;12.27;9.50;;;17.40;84.40;;;;;;5095157;28;20261;-90
2023/08/28 08:37:58;;;;;;;11.07;9.93;;;17.60;84.90;;;;;;5094345;28;20179;-90
2023/08/28 08:40:26;;;;;;;12.23;11.05;;;17.50;83.20;;;;;;5093905;28;20652;-89
2023/08/28 08:42:53;;;;;;;11.35;10.35;;;17.40;83.00;;;;;;5093734;28;20171;-89
2023/08/28 08:45:28;;;;;;;10.77;9.77;;;17.30;83.20;;;;;;5093591;28;20268;-90
2023/08/28 08:47:57;;;;;;;11.27;9.63;;;17.40;83.90;;;;;;5094820;28;20186;-90
2023/08/28 08:50:23;;;;;;;10.50;9.55;;;17.50;83.90;;;;;;5093607;28;20194;-90
2023/08/28 08:52:49;;;;;;;10.68;9.82;;;17.60;83.70;;;;;;5093590;28;20248;-90
2023/08/28 08:55:27;;;;;;;11.57;10.70;;;17.70;83.70;;;;;;5094019;28;20681;-89
2023/08/28 08:57:57;;;;;;;12.05;9.77;;;17.60;82.80;;;;;;5093416;28;20227;-89
2023/08/28 09:00:23;;;;;;;10.85;9.88;;;17.70;84.00;;;;;;5093315;28;20182;-90
2023/08/28 09:02:50;;;;;;;12.77;11.02;;;17.70;83.40;;;;;;5094537;28;20178;-90
2023/08/28 09:05:16;;;;;;;11.63;10.50;;;17.50;82.60;;;;;;5094527;28;20195;-89
2023/08/28 09:07:44;;;;;;;11.00;9.90;;;17.40;83.00;;;;;;5094665;28;20331;-90
2023/08/28 09:10:10;;;;;;;9.90;9.02;;;17.30;83.50;;;;;;5093603;28;20181;-90
2023/08/28 09:12:35;;;;;;;9.30;8.70;;;17.10;84.40;;;;;;5094506;28;20249;-90
2023/08/28 09:15:03;;;;;;;12.90;9.20;;;17.00;84.80;;;;;;5094442;28;20267;-91
2023/08/28 09:17:28;;;;;;;9.00;8.25;;;17.00;85.00;;;;;;5094295;28;20662;-89
2023/08/28 09:19:54;;;;;;;9.70;8.80;;;17.00;85.70;;;;;;5092993;28;20175;-89
2023/08/28 09:22:25;;;;;;;9.52;8.63;;;16.90;84.90;;;;;;5092901;28;20174;-90
2023/08/28 09:24:52;;;;;;;9.05;8.25;;;17.10;85.50;;;;;;5092954;28;20198;-89
2023/08/28 09:27:18;;;;;;;16.83;15.48;;;17.50;84.40;;;;;;5092876;28;20600;-89
2023/08/28 09:29:43;;;;;;;17.60;16.10;;;17.80;83.50;;;;;;5093315;28;20559;-90
2023/08/28 09:32:09;;;;;;;18.80;17.35;;;17.70;83.00;;;;;;5094126;28;20249;-89
2023/08/28 09:34:40;;;;;;;21.27;19.80;;;17.80;83.80;;;;;;5092667;28;20170;-90
2023/08/28 09:37:10;;;;;;;10.30;9.60;;;17.80;82.10;;;;;;5092211;28;20544;-90
2023/08/28 09:39:40;;;;;;;10.43;9.70;;;17.90;82.40;;;;;;5093057;28;20213;-90
2023/08/28 09:42:06;;;;;;;20.38;18.98;;;17.80;81.80;;;;;;5092711;28;20174;-90
2023/08/28 09:44:36;;;;;;;22.55;20.77;;;17.90;81.30;;;;;;5093766;28;20721;-92
2023/08/28 09:47:02;;;;;;;12.10;10.93;;;18.00;80.20;;;;;;5093745;28;20232;-90
2023/08/28 09:49:28;;;;;;;11.60;10.70;;;18.00;80.50;;;;;;5092791;28;20174;-91
2023/08/28 09:51:57;;;;;;;11.32;10.60;;;17.90;80.80;;;;;;5092834;28;20182;-90
2023/08/28 09:54:24;;;;;;;21.55;19.95;;;17.90;81.50;;;;;;5092523;28;20175;-90
2023/08/28 09:56:51;;;;;;;22.52;20.45;;;17.80;81.00;;;;;;5094456;28;20182;-90
2023/08/28 09:59:16;;;;;;;10.40;9.50;;;17.80;81.90;;;;;;5093789;28;20182;-91
2023/08/28 10:01:42;;;;;;;11.13;10.10;;;17.80;82.70;;;;;;5092466;28;20174;-90
2023/08/28 10:04:13;;;;;;;17.27;15.95;;;17.70;82.30;;;;;;5092514;28;20174;-89
2023/08/28 10:06:43;;;;;;;16.77;15.45;;;17.60;82.90;;;;;;5093445;28;20569;-90
2023/08/28 10:09:18;;;;;;;16.38;15.02;;;17.20;84.40;;;;;;5093610;28;20151;-90
2023/08/28 10:11:45;;;;;;;8.43;7.63;;;16.80;85.90;;;;;;5092666;28;20190;-90
2023/08/28 10:14:11;;;;;;;8.68;6.65;;;16.80;86.80;;;;;;5092955;28;20183;-90
2023/08/28 10:16:46;;;;;;;6.68;6.28;;;16.80;86.90;;;;;;5093126;28;20194;-89
2023/08/28 10:19:17;;;;;;;10.18;6.22;;;16.80;87.30;;;;;;5092528;28;20173;-90
2023/08/28 10:21:44;;;;;;;6.95;5.88;;;16.80;87.60;;;;;;5092665;28;20564;-90
2023/08/28 10:24:12;;;;;;;6.30;5.80;;;16.80;88.20;;;;;;5092210;28;20554;-90
2023/08/28 10:26:38;;;;;;;9.00;6.13;;;16.70;88.50;;;;;;5092083;28;20580;-88
2023/08/28 10:29:06;;;;;;;8.90;5.35;;;16.70;88.80;;;;;;5093329;28;20174;-89
2023/08/28 10:31:32;;;;;;;6.05;5.38;;;16.80;88.80;;;;;;5092192;28;20219;-88
2023/08/28 10:33:59;;;;;;;6.25;5.75;;;16.80;88.90;;;;;;5092073;28;20235;-90
2023/08/28 10:36:26;;;;;;;9.27;6.18;;;16.70;88.50;;;;;;5093237;28;20186;-91
2023/08/28 10:38:53;;;;;;;7.20;6.60;;;16.80;88.20;;;;;;5093273;28;20171;-90
2023/08/28 10:41:20;;;;;;;8.52;7.78;;;16.90;87.80;;;;;;5092036;28;20186;-90
2023/08/28 10:43:50;;;;;;;8.52;7.60;;;16.90;86.10;;;;;;5092686;28;20186;-91
2023/08/28 10:46:16;;;;;;;8.48;7.75;;;17.30;85.70;;;;;;5093089;28;20194;-91
2023/08/28 10:48:45;;;;;;;9.18;8.40;;;17.80;85.10;;;;;;5093717;28;20718;-91
2023/08/28 10:51:12;;;;;;;10.40;9.70;;;18.10;83.50;;;;;;5095971;28;20186;-90
2023/08/28 10:53:39;;;;;;;10.48;9.73;;;18.30;81.20;;;;;;5096529;28;20151;-90
2023/08/28 10:56:05;;;;;;;12.02;10.90;;;18.50;81.60;;;;;;5096657;28;20210;-90
2023/08/28 10:58:32;;;;;;;11.98;11.07;;;18.60;79.00;;;;;;5096421;28;20611;-90
2023/08/28 11:01:14;;;;;;;12.85;11.75;;;18.80;80.70;;;;;;5098266;28;20655;-91
2023/08/28 11:03:56;;;;;;;13.00;12.10;;;18.90;77.80;;;;;;5097640;28;20173;-91
2023/08/28 11:06:45;;;;;;;13.30;12.30;;;19.00;79.00;;;;;;5097273;28;20704;-90
2023/08/28 11:09:28;;;;;;;14.05;12.80;;;18.70;78.40;;;;;;5097481;28;20226;-91
2023/08/28 11:12:00;;;;;;;12.45;11.45;;;18.50;79.20;;;;;;5097443;28;20167;-90
2023/08/28 11:14:38;;;;;;;12.05;11.25;;;18.40;80.10;;;;;;5096604;28;20166;-91
2023/08/28 11:17:10;;;;;;;12.75;11.82;;;18.30;79.50;;;;;;5097389;28;20174;-91
2023/08/28 11:19:59;;;;;;;12.85;11.90;;;18.20;80.30;;;;;;5098916;28;20179;-91
2023/08/28 11:22:36;;;;;;;11.32;10.52;;;18.20;80.00;;;;;;5094512;28;20206;-90
2023/08/28 11:25:07;;;;;;;11.05;10.35;;;18.20;80.50;;;;;;5098621;28;20265;-90
2023/08/28 11:27:45;;;;;;;11.50;10.50;;;18.50;81.00;;;;;;5096090;28;20286;-90
2023/08/28 11:30:13;;;;;;;11.90;11.20;;;19.00;81.60;;;;;;5097478;28;20167;-90
2023/08/28 11:32:41;;;;;;;13.48;12.50;;;19.30;78.40;;;;;;5096290;28;20182;-90
2023/08/28 11:35:08;;;;;;;13.85;12.85;;;19.40;77.80;;;;;;5097346;28;20186;-90
2023/08/28 11:37:42;;;;;;;18.40;17.23;;;19.50;78.10;;;;;;5097053;28;20191;-90
2023/08/28 11:40:09;;;;;;;18.08;16.67;;;19.20;70.40;;;;;;5095966;28;20171;-90
2023/08/28 11:42:35;;;;;;;18.45;17.02;;;19.50;71.40;;;;;;5096600;28;20183;-92
2023/08/28 11:45:02;;;;;;;16.45;15.43;;;19.60;72.30;;;;;;5098347;28;20198;-91
2023/08/28 11:47:30;;;;;;;16.63;15.35;;;20.00;73.70;;;;;;5097640;28;20657;-89
2023/08/28 11:49:57;;;;;;;16.52;15.15;;;20.30;72.40;;;;;;5096980;28;20166;-91
2023/08/28 11:52:23;;;;;;;16.45;15.35;;;20.40;72.60;;;;;;5096593;28;20190;-91
2023/08/28 11:54:50;;;;;;;17.88;16.42;;;20.30;69.80;;;;;;5095202;28;20244;-92
2023/08/28 11:57:18;;;;;;;17.02;15.85;;;20.40;69.90;;;;;;5096341;28;20190;-89
2023/08/28 11:59:47;;;;;;;17.00;15.63;;;20.50;70.30;;;;;;5094878;28;20325;-90
2023/08/28 12:02:13;;;;;;;16.42;15.32;;;20.80;70.60;;;;;;5096721;28;20175;-92
2023/08/28 12:04:48;;;;;;;18.38;16.80;;;20.90;67.80;;;;;;5095926;28;20205;-91
2023/08/28 12:07:22;;;;;;;17.90;16.63;;;20.90;69.00;;;;;;5095834;28;20206;-91
2023/08/28 12:09:49;;;;;;;16.45;15.35;;;21.10;68.50;;;;;;5096766;28;20236;-92
2023/08/28 12:12:16;;;;;;;16.95;15.85;;;21.10;69.50;;;;;;5094715;28;20167;-91
2023/08/28 12:14:43;;;;;;;16.92;15.73;;;21.40;68.70;;;;;;5096152;28;20282;-92
2023/08/28 12:17:15;;;;;;;17.25;15.82;;;21.40;67.30;;;;;;5094583;28;20190;-92
2023/08/28 12:19:41;;;;;;;15.48;14.48;;;21.60;65.90;;;;;;5095779;28;20170;-91
2023/08/28 12:22:08;;;;;;;17.90;16.67;;;21.70;67.90;;;;;;5096280;28;20652;-92
2023/08/28 12:24:39;;;;;;;18.00;16.48;;;21.80;65.40;;;;;;5095414;28;20186;-93
2023/08/28 12:27:05;;;;;;;18.35;17.05;;;22.00;65.20;;;;;;5094510;28;20194;-91
2023/08/28 12:29:33;;;;;;;19.90;18.60;;;22.20;65.40;;;;;;5094424;28;20179;-92
2023/08/28 12:31:58;;;;;;;21.13;19.60;;;22.20;63.30;;;;;;5094568;28;20179;-92
2023/08/28 12:34:28;;;;;;;19.75;18.40;;;22.20;62.90;;;;;;5094504;28;20167;-92
2023/08/28 12:37:03;;;;;;;20.10;18.63;;;22.30;61.90;;;;;;5094489;28;20182;-92
2023/08/28 12:39:29;;;;;;;19.77;18.50;;;22.70;63.10;;;;;;5094460;28;20233;-91
2023/08/28 12:41:55;;;;;;;19.27;17.98;;;22.50;60.60;;;;;;5094371;28;20170;-92